sensor_id;sensor_type;location;lat;lon;timestamp;pressure;altitude;pressure_sealevel;temperature;humidity
16525;BME280;8375;33.594;-117.718;2022-11-15T00:01:18;100599.25;;;18.86;31.43
16525;BME280;8375;33.594;-117.718;2022-11-15T00:03:50;100598.28;;;18.87;32.50
16525;BME280;8375;33.594;-117.718;2022-11-15T00:06:19;100595.78;;;18.77;32.97
16525;BME280;8375;33.594;-117.718;2022-11-15T00:08:47;100594.13;;;18.68;33.91
16525;BME280;8375;33.594;-117.718;2022-11-15T00:11:16;100603.63;;;18.60;33.55
16525;BME280;8375;33.594;-117.718;2022-11-15T00:13:46;100600.16;;;18.52;34.19
16525;BME280;8375;33.594;-117.718;2022-11-15T00:16:15;100599.47;;;18.41;35.12
16525;BME280;8375;33.594;-117.718;2022-11-15T00:18:43;100602.72;;;18.35;35.92
16525;BME280;8375;33.594;-117.718;2022-11-15T00:21:13;100599.59;;;18.23;37.07
16525;BME280;8375;33.594;-117.718;2022-11-15T00:23:42;100598.53;;;18.08;37.80
16525;BME280;8375;33.594;-117.718;2022-11-15T00:26:12;100599.25;;;17.92;38.19
16525;BME280;8375;33.594;-117.718;2022-11-15T00:28:41;100608.91;;;17.83;38.73
16525;BME280;8375;33.594;-117.718;2022-11-15T00:31:13;100604.53;;;17.65;38.49
16525;BME280;8375;33.594;-117.718;2022-11-15T00:33:43;100613.63;;;17.53;40.59
16525;BME280;8375;33.594;-117.718;2022-11-15T00:36:12;100614.56;;;17.43;40.17
16525;BME280;8375;33.594;-117.718;2022-11-15T00:38:41;100605.41;;;17.29;40.70
16525;BME280;8375;33.594;-117.718;2022-11-15T00:41:10;100612.34;;;17.12;41.45
16525;BME280;8375;33.594;-117.718;2022-11-15T00:43:38;100610.69;;;17.11;41.05
16525;BME280;8375;33.594;-117.718;2022-11-15T00:46:11;100618.50;;;17.03;44.01
16525;BME280;8375;33.594;-117.718;2022-11-15T00:48:40;100621.16;;;16.93;44.97
16525;BME280;8375;33.594;-117.718;2022-11-15T00:51:08;100623.53;;;16.68;44.68
16525;BME280;8375;33.594;-117.718;2022-11-15T00:53:37;100620.69;;;16.62;45.26
16525;BME280;8375;33.594;-117.718;2022-11-15T00:56:06;100624.19;;;16.52;45.26
16525;BME280;8375;33.594;-117.718;2022-11-15T00:58:35;100629.47;;;16.42;46.30
16525;BME280;8375;33.594;-117.718;2022-11-15T01:01:08;100627.03;;;16.31;45.17
16525;BME280;8375;33.594;-117.718;2022-11-15T01:03:39;100625.84;;;16.25;45.55
16525;BME280;8375;33.594;-117.718;2022-11-15T01:06:09;100629.22;;;16.08;46.48
16525;BME280;8375;33.594;-117.718;2022-11-15T01:08:38;100625.53;;;16.01;48.66
16525;BME280;8375;33.594;-117.718;2022-11-15T01:11:09;100625.66;;;15.89;48.55
16525;BME280;8375;33.594;-117.718;2022-11-15T01:13:38;100633.41;;;15.71;50.54
16525;BME280;8375;33.594;-117.718;2022-11-15T01:16:09;100627.09;;;15.54;50.41
16525;BME280;8375;33.594;-117.718;2022-11-15T01:18:40;100627.66;;;15.48;50.18
16525;BME280;8375;33.594;-117.718;2022-11-15T01:21:09;100633.16;;;15.45;49.69
16525;BME280;8375;33.594;-117.718;2022-11-15T01:23:38;100635.91;;;15.33;50.71
16525;BME280;8375;33.594;-117.718;2022-11-15T01:26:09;100632.78;;;15.30;50.78
16525;BME280;8375;33.594;-117.718;2022-11-15T01:28:39;100638.56;;;15.23;50.74
16525;BME280;8375;33.594;-117.718;2022-11-15T01:31:12;100636.88;;;15.13;51.66
16525;BME280;8375;33.594;-117.718;2022-11-15T01:33:42;100646.13;;;15.07;51.21
16525;BME280;8375;33.594;-117.718;2022-11-15T01:36:12;100644.59;;;14.94;50.62
16525;BME280;8375;33.594;-117.718;2022-11-15T01:38:42;100648.44;;;14.90;51.81
16525;BME280;8375;33.594;-117.718;2022-11-15T01:41:15;100643.75;;;14.84;52.37
16525;BME280;8375;33.594;-117.718;2022-11-15T01:43:46;100642.50;;;14.78;52.73
16525;BME280;8375;33.594;-117.718;2022-11-15T01:46:24;100655.91;;;14.64;53.73
16525;BME280;8375;33.594;-117.718;2022-11-15T01:48:56;100648.59;;;14.58;54.06
16525;BME280;8375;33.594;-117.718;2022-11-15T01:51:27;100656.31;;;14.59;54.39
16525;BME280;8375;33.594;-117.718;2022-11-15T01:54:02;100652.28;;;14.45;53.97
16525;BME280;8375;33.594;-117.718;2022-11-15T01:56:37;100652.81;;;14.39;55.57
16525;BME280;8375;33.594;-117.718;2022-11-15T01:59:09;100656.09;;;14.31;56.00
16525;BME280;8375;33.594;-117.718;2022-11-15T02:01:39;100661.41;;;14.20;56.18
16525;BME280;8375;33.594;-117.718;2022-11-15T02:04:12;100652.28;;;14.14;56.23
16525;BME280;8375;33.594;-117.718;2022-11-15T02:06:43;100651.16;;;14.07;56.95
16525;BME280;8375;33.594;-117.718;2022-11-15T02:09:13;100651.13;;;13.97;58.31
16525;BME280;8375;33.594;-117.718;2022-11-15T02:11:42;100648.31;;;13.89;58.70
16525;BME280;8375;33.594;-117.718;2022-11-15T02:14:12;100655.38;;;13.77;59.47
16525;BME280;8375;33.594;-117.718;2022-11-15T02:16:48;100648.31;;;13.68;59.79
16525;BME280;8375;33.594;-117.718;2022-11-15T02:19:33;100661.94;;;13.71;59.71
16525;BME280;8375;33.594;-117.718;2022-11-15T02:22:14;100653.34;;;13.59;60.56
16525;BME280;8375;33.594;-117.718;2022-11-15T02:25:12;100658.63;;;13.48;60.83
16525;BME280;8375;33.594;-117.718;2022-11-15T02:31:02;100664.00;;;13.35;61.87
16525;BME280;8375;33.594;-117.718;2022-11-15T02:33:37;100657.94;;;13.34;61.63
16525;BME280;8375;33.594;-117.718;2022-11-15T02:36:13;100664.03;;;13.12;62.37
16525;BME280;8375;33.594;-117.718;2022-11-15T02:38:49;100664.44;;;13.08;63.45
16525;BME280;8375;33.594;-117.718;2022-11-15T02:41:24;100658.97;;;13.11;62.83
16525;BME280;8375;33.594;-117.718;2022-11-15T02:43:59;100665.38;;;13.06;62.14
16525;BME280;8375;33.594;-117.718;2022-11-15T02:46:34;100660.91;;;12.97;62.66
16525;BME280;8375;33.594;-117.718;2022-11-15T02:49:22;100666.00;;;12.87;62.80
16525;BME280;8375;33.594;-117.718;2022-11-15T02:51:52;100661.88;;;12.85;62.99
16525;BME280;8375;33.594;-117.718;2022-11-15T02:54:23;100665.91;;;12.77;63.85
16525;BME280;8375;33.594;-117.718;2022-11-15T02:56:56;100668.53;;;12.77;62.92
16525;BME280;8375;33.594;-117.718;2022-11-15T02:59:55;100667.81;;;12.64;63.17
16525;BME280;8375;33.594;-117.718;2022-11-15T03:02:42;100675.88;;;12.61;62.39
16525;BME280;8375;33.594;-117.718;2022-11-15T03:05:21;100672.31;;;12.62;61.64
16525;BME280;8375;33.594;-117.718;2022-11-15T03:08:00;100676.13;;;12.58;61.14
16525;BME280;8375;33.594;-117.718;2022-11-15T03:10:42;100679.31;;;12.39;63.29
16525;BME280;8375;33.594;-117.718;2022-11-15T03:13:21;100678.50;;;12.38;63.84
16525;BME280;8375;33.594;-117.718;2022-11-15T03:16:00;100674.69;;;12.31;63.26
16525;BME280;8375;33.594;-117.718;2022-11-15T03:18:35;100678.94;;;12.21;63.51
16525;BME280;8375;33.594;-117.718;2022-11-15T03:21:08;100667.34;;;12.13;63.23
16525;BME280;8375;33.594;-117.718;2022-11-15T03:23:39;100664.84;;;12.12;62.75
16525;BME280;8375;33.594;-117.718;2022-11-15T03:26:13;100661.28;;;12.01;62.27
16525;BME280;8375;33.594;-117.718;2022-11-15T03:28:47;100665.97;;;11.96;62.23
16525;BME280;8375;33.594;-117.718;2022-11-15T03:31:20;100664.94;;;11.99;62.95
16525;BME280;8375;33.594;-117.718;2022-11-15T03:34:13;100660.91;;;11.95;61.73
16525;BME280;8375;33.594;-117.718;2022-11-15T03:36:44;100655.00;;;11.93;63.14
16525;BME280;8375;33.594;-117.718;2022-11-15T03:39:14;100648.09;;;11.69;62.20
16525;BME280;8375;33.594;-117.718;2022-11-15T03:41:48;100649.13;;;11.66;64.47
16525;BME280;8375;33.594;-117.718;2022-11-15T03:44:23;100658.22;;;11.61;64.72
16525;BME280;8375;33.594;-117.718;2022-11-15T03:47:00;100657.28;;;11.62;64.79
16525;BME280;8375;33.594;-117.718;2022-11-15T03:49:36;100647.34;;;11.55;64.79
16525;BME280;8375;33.594;-117.718;2022-11-15T03:52:11;100647.34;;;11.55;64.77
16525;BME280;8375;33.594;-117.718;2022-11-15T03:54:52;100655.59;;;11.49;65.94
16525;BME280;8375;33.594;-117.718;2022-11-15T03:57:21;100650.72;;;11.44;65.75
16525;BME280;8375;33.594;-117.718;2022-11-15T03:59:50;100646.59;;;11.42;66.09
16525;BME280;8375;33.594;-117.718;2022-11-15T04:02:20;100644.53;;;11.34;66.72
16525;BME280;8375;33.594;-117.718;2022-11-15T04:04:52;100651.59;;;11.32;66.95
16525;BME280;8375;33.594;-117.718;2022-11-15T04:07:21;100651.03;;;11.28;66.60
16525;BME280;8375;33.594;-117.718;2022-11-15T04:09:50;100654.06;;;11.22;67.26
16525;BME280;8375;33.594;-117.718;2022-11-15T04:12:37;100652.91;;;11.26;67.06
16525;BME280;8375;33.594;-117.718;2022-11-15T04:15:11;100645.88;;;11.15;68.01
16525;BME280;8375;33.594;-117.718;2022-11-15T04:17:43;100648.38;;;11.17;68.27
16525;BME280;8375;33.594;-117.718;2022-11-15T04:20:17;100653.34;;;11.20;69.15
16525;BME280;8375;33.594;-117.718;2022-11-15T04:23:05;100653.16;;;11.10;68.98
16525;BME280;8375;33.594;-117.718;2022-11-15T04:25:52;100656.03;;;10.94;69.67
16525;BME280;8375;33.594;-117.718;2022-11-15T04:28:22;100657.22;;;10.90;70.27
16525;BME280;8375;33.594;-117.718;2022-11-15T04:30:51;100647.25;;;10.84;71.40
16525;BME280;8375;33.594;-117.718;2022-11-15T04:33:21;100653.25;;;10.84;71.25
16525;BME280;8375;33.594;-117.718;2022-11-15T04:35:53;100649.00;;;10.83;71.83
16525;BME280;8375;33.594;-117.718;2022-11-15T04:38:39;100664.06;;;10.78;72.72
16525;BME280;8375;33.594;-117.718;2022-11-15T04:41:09;100660.53;;;10.79;73.15
16525;BME280;8375;33.594;-117.718;2022-11-15T04:43:37;100663.34;;;10.76;73.65
16525;BME280;8375;33.594;-117.718;2022-11-15T04:46:06;100660.75;;;10.76;73.35
16525;BME280;8375;33.594;-117.718;2022-11-15T04:48:35;100658.50;;;10.71;74.40
16525;BME280;8375;33.594;-117.718;2022-11-15T04:51:06;100664.84;;;10.67;75.26
16525;BME280;8375;33.594;-117.718;2022-11-15T04:53:37;100658.94;;;10.65;75.91
16525;BME280;8375;33.594;-117.718;2022-11-15T04:56:13;100661.94;;;10.59;77.50
16525;BME280;8375;33.594;-117.718;2022-11-15T04:58:43;100655.13;;;10.45;79.19
16525;BME280;8375;33.594;-117.718;2022-11-15T05:01:20;100662.69;;;10.48;80.34
16525;BME280;8375;33.594;-117.718;2022-11-15T05:03:50;100661.84;;;10.48;81.16
16525;BME280;8375;33.594;-117.718;2022-11-15T05:06:39;100663.28;;;10.52;81.70
16525;BME280;8375;33.594;-117.718;2022-11-15T05:09:09;100669.75;;;10.46;82.01
16525;BME280;8375;33.594;-117.718;2022-11-15T05:11:40;100663.00;;;10.44;82.76
16525;BME280;8375;33.594;-117.718;2022-11-15T05:14:10;100670.97;;;10.40;83.04
16525;BME280;8375;33.594;-117.718;2022-11-15T05:16:39;100668.78;;;10.34;83.25
16525;BME280;8375;33.594;-117.718;2022-11-15T05:19:08;100665.56;;;10.31;84.07
16525;BME280;8375;33.594;-117.718;2022-11-15T05:21:40;100669.31;;;10.26;84.95
16525;BME280;8375;33.594;-117.718;2022-11-15T05:24:10;100671.91;;;10.26;85.57
16525;BME280;8375;33.594;-117.718;2022-11-15T05:26:40;100677.19;;;10.25;85.64
16525;BME280;8375;33.594;-117.718;2022-11-15T05:29:10;100679.28;;;10.20;85.49
16525;BME280;8375;33.594;-117.718;2022-11-15T05:31:40;100678.97;;;10.11;86.03
16525;BME280;8375;33.594;-117.718;2022-11-15T05:34:10;100677.81;;;10.03;86.90
16525;BME280;8375;33.594;-117.718;2022-11-15T05:36:42;100678.84;;;10.00;88.24
16525;BME280;8375;33.594;-117.718;2022-11-15T05:39:13;100683.09;;;10.01;88.38
16525;BME280;8375;33.594;-117.718;2022-11-15T05:41:44;100677.91;;;10.01;88.49
16525;BME280;8375;33.594;-117.718;2022-11-15T05:44:24;100680.09;;;9.94;88.50
16525;BME280;8375;33.594;-117.718;2022-11-15T05:46:54;100682.25;;;9.88;88.87
16525;BME280;8375;33.594;-117.718;2022-11-15T05:49:26;100689.22;;;9.87;89.82
16525;BME280;8375;33.594;-117.718;2022-11-15T05:51:59;100682.56;;;9.83;90.97
16525;BME280;8375;33.594;-117.718;2022-11-15T05:54:28;100694.69;;;9.82;90.94
16525;BME280;8375;33.594;-117.718;2022-11-15T05:56:57;100695.31;;;9.73;90.94
16525;BME280;8375;33.594;-117.718;2022-11-15T05:59:27;100692.19;;;9.68;91.44
16525;BME280;8375;33.594;-117.718;2022-11-15T06:01:57;100689.97;;;9.62;91.35
16525;BME280;8375;33.594;-117.718;2022-11-15T06:04:26;100691.66;;;9.63;91.23
16525;BME280;8375;33.594;-117.718;2022-11-15T06:06:55;100692.97;;;9.56;91.39
16525;BME280;8375;33.594;-117.718;2022-11-15T06:09:25;100696.88;;;9.48;92.21
16525;BME280;8375;33.594;-117.718;2022-11-15T06:11:53;100704.78;;;9.47;92.23
16525;BME280;8375;33.594;-117.718;2022-11-15T06:14:22;100706.31;;;9.49;91.78
16525;BME280;8375;33.594;-117.718;2022-11-15T06:16:51;100701.59;;;9.56;92.26
16525;BME280;8375;33.594;-117.718;2022-11-15T06:19:19;100709.13;;;9.46;93.23
16525;BME280;8375;33.594;-117.718;2022-11-15T06:21:48;100712.84;;;9.42;93.38
16525;BME280;8375;33.594;-117.718;2022-11-15T06:24:16;100725.25;;;9.37;92.79
16525;BME280;8375;33.594;-117.718;2022-11-15T06:26:46;100723.91;;;9.31;94.05
16525;BME280;8375;33.594;-117.718;2022-11-15T06:29:15;100724.72;;;9.32;93.63
16525;BME280;8375;33.594;-117.718;2022-11-15T06:31:43;100718.72;;;9.31;93.24
16525;BME280;8375;33.594;-117.718;2022-11-15T06:34:12;100719.19;;;9.23;94.55
16525;BME280;8375;33.594;-117.718;2022-11-15T06:36:41;100719.56;;;9.17;95.22
16525;BME280;8375;33.594;-117.718;2022-11-15T06:39:09;100721.53;;;9.14;95.48
16525;BME280;8375;33.594;-117.718;2022-11-15T06:41:39;100729.31;;;9.14;95.26
16525;BME280;8375;33.594;-117.718;2022-11-15T06:44:09;100722.47;;;9.13;94.98
16525;BME280;8375;33.594;-117.718;2022-11-15T06:46:38;100724.50;;;9.07;95.14
16525;BME280;8375;33.594;-117.718;2022-11-15T06:49:06;100714.78;;;8.97;96.11
16525;BME280;8375;33.594;-117.718;2022-11-15T06:51:35;100716.47;;;8.98;96.22
16525;BME280;8375;33.594;-117.718;2022-11-15T06:54:04;100719.16;;;8.96;95.80
16525;BME280;8375;33.594;-117.718;2022-11-15T06:56:34;100732.00;;;8.98;95.62
16525;BME280;8375;33.594;-117.718;2022-11-15T06:59:03;100726.75;;;8.85;96.76
16525;BME280;8375;33.594;-117.718;2022-11-15T07:01:33;100729.72;;;8.78;97.04
16525;BME280;8375;33.594;-117.718;2022-11-15T07:04:01;100729.63;;;8.80;96.66
16525;BME280;8375;33.594;-117.718;2022-11-15T07:06:30;100729.72;;;8.78;97.16
16525;BME280;8375;33.594;-117.718;2022-11-15T07:08:59;100728.50;;;8.84;96.58
16525;BME280;8375;33.594;-117.718;2022-11-15T07:11:27;100731.38;;;8.79;96.90
16525;BME280;8375;33.594;-117.718;2022-11-15T07:13:56;100729.91;;;8.75;96.96
16525;BME280;8375;33.594;-117.718;2022-11-15T07:16:24;100736.75;;;8.76;97.05
16525;BME280;8375;33.594;-117.718;2022-11-15T07:18:55;100731.75;;;8.73;97.62
16525;BME280;8375;33.594;-117.718;2022-11-15T07:21:24;100741.19;;;8.74;97.57
16525;BME280;8375;33.594;-117.718;2022-11-15T07:23:52;100733.88;;;8.66;98.07
16525;BME280;8375;33.594;-117.718;2022-11-15T07:26:21;100730.34;;;8.68;97.85
16525;BME280;8375;33.594;-117.718;2022-11-15T07:28:49;100731.19;;;8.68;97.66
16525;BME280;8375;33.594;-117.718;2022-11-15T07:31:18;100740.16;;;8.62;98.30
16525;BME280;8375;33.594;-117.718;2022-11-15T07:33:47;100740.81;;;8.66;98.49
16525;BME280;8375;33.594;-117.718;2022-11-15T07:36:17;100741.94;;;8.62;98.79
16525;BME280;8375;33.594;-117.718;2022-11-15T07:38:46;100747.72;;;8.65;99.49
16525;BME280;8375;33.594;-117.718;2022-11-15T07:41:15;100739.16;;;8.65;98.96
16525;BME280;8375;33.594;-117.718;2022-11-15T07:43:43;100742.94;;;8.59;98.04
16525;BME280;8375;33.594;-117.718;2022-11-15T07:46:12;100742.47;;;8.53;97.84
16525;BME280;8375;33.594;-117.718;2022-11-15T07:48:40;100741.72;;;8.50;97.05
16525;BME280;8375;33.594;-117.718;2022-11-15T07:51:11;100739.75;;;8.40;97.69
16525;BME280;8375;33.594;-117.718;2022-11-15T07:53:43;100736.78;;;8.31;98.10
16525;BME280;8375;33.594;-117.718;2022-11-15T07:56:12;100731.41;;;8.34;98.31
16525;BME280;8375;33.594;-117.718;2022-11-15T07:58:41;100729.00;;;8.31;98.20
16525;BME280;8375;33.594;-117.718;2022-11-15T08:01:10;100731.69;;;8.30;98.61
16525;BME280;8375;33.594;-117.718;2022-11-15T08:03:39;100734.09;;;8.33;98.57
16525;BME280;8375;33.594;-117.718;2022-11-15T08:06:08;100727.69;;;8.24;99.11
16525;BME280;8375;33.594;-117.718;2022-11-15T08:08:36;100738.91;;;8.25;98.64
16525;BME280;8375;33.594;-117.718;2022-11-15T08:11:06;100739.91;;;8.22;98.17
16525;BME280;8375;33.594;-117.718;2022-11-15T08:13:35;100734.72;;;8.22;98.35
16525;BME280;8375;33.594;-117.718;2022-11-15T08:16:04;100743.50;;;8.19;97.68
16525;BME280;8375;33.594;-117.718;2022-11-15T08:18:33;100734.88;;;8.04;97.98
16525;BME280;8375;33.594;-117.718;2022-11-15T08:21:02;100735.91;;;8.02;97.61
16525;BME280;8375;33.594;-117.718;2022-11-15T08:23:30;100741.13;;;8.00;97.39
16525;BME280;8375;33.594;-117.718;2022-11-15T08:26:00;100740.03;;;8.04;97.03
16525;BME280;8375;33.594;-117.718;2022-11-15T08:28:32;100739.06;;;7.91;96.77
16525;BME280;8375;33.594;-117.718;2022-11-15T08:31:00;100740.34;;;7.84;96.63
16525;BME280;8375;33.594;-117.718;2022-11-15T08:33:29;100734.50;;;7.80;97.71
16525;BME280;8375;33.594;-117.718;2022-11-15T08:35:59;100740.53;;;7.81;97.81
16525;BME280;8375;33.594;-117.718;2022-11-15T08:38:28;100738.28;;;7.74;98.32
16525;BME280;8375;33.594;-117.718;2022-11-15T08:41:01;100734.94;;;7.72;99.63
16525;BME280;8375;33.594;-117.718;2022-11-15T08:43:32;100731.75;;;7.83;100.00
16525;BME280;8375;33.594;-117.718;2022-11-15T08:46:00;100733.16;;;7.89;99.74
16525;BME280;8375;33.594;-117.718;2022-11-15T08:48:29;100741.34;;;7.81;100.00
16525;BME280;8375;33.594;-117.718;2022-11-15T08:50:58;100741.09;;;7.86;100.00
16525;BME280;8375;33.594;-117.718;2022-11-15T08:53:26;100746.50;;;7.81;99.43
16525;BME280;8375;33.594;-117.718;2022-11-15T08:55:55;100740.34;;;7.84;99.16
16525;BME280;8375;33.594;-117.718;2022-11-15T08:58:24;100744.66;;;7.83;99.14
16525;BME280;8375;33.594;-117.718;2022-11-15T09:00:54;100738.75;;;7.81;98.62
16525;BME280;8375;33.594;-117.718;2022-11-15T09:03:22;100735.34;;;7.81;98.45
16525;BME280;8375;33.594;-117.718;2022-11-15T09:05:55;100732.59;;;7.84;98.88
16525;BME280;8375;33.594;-117.718;2022-11-15T09:08:24;100730.34;;;7.77;98.51
16525;BME280;8375;33.594;-117.718;2022-11-15T09:10:52;100734.09;;;7.72;98.53
16525;BME280;8375;33.594;-117.718;2022-11-15T09:13:21;100732.72;;;7.66;98.63
16525;BME280;8375;33.594;-117.718;2022-11-15T09:15:50;100731.13;;;7.63;98.51
16525;BME280;8375;33.594;-117.718;2022-11-15T09:18:20;100724.97;;;7.66;98.64
16525;BME280;8375;33.594;-117.718;2022-11-15T09:20:49;100729.22;;;7.67;98.97
16525;BME280;8375;33.594;-117.718;2022-11-15T09:23:17;100725.88;;;7.65;98.97
16525;BME280;8375;33.594;-117.718;2022-11-15T09:25:46;100721.63;;;7.64;99.37
16525;BME280;8375;33.594;-117.718;2022-11-15T09:28:15;100722.72;;;7.60;100.00
16525;BME280;8375;33.594;-117.718;2022-11-15T09:30:43;100726.06;;;7.62;99.82
16525;BME280;8375;33.594;-117.718;2022-11-15T09:33:12;100718.38;;;7.60;99.22
16525;BME280;8375;33.594;-117.718;2022-11-15T09:35:42;100710.72;;;7.59;98.95
16525;BME280;8375;33.594;-117.718;2022-11-15T09:38:11;100714.22;;;7.58;99.05
16525;BME280;8375;33.594;-117.718;2022-11-15T09:40:40;100713.13;;;7.62;98.25
16525;BME280;8375;33.594;-117.718;2022-11-15T09:43:28;100711.53;;;7.59;97.57
16525;BME280;8375;33.594;-117.718;2022-11-15T09:46:08;100705.97;;;7.51;97.70
16525;BME280;8375;33.594;-117.718;2022-11-15T09:48:50;100703.91;;;7.42;98.35
16525;BME280;8375;33.594;-117.718;2022-11-15T09:51:25;100705.31;;;7.47;99.59
16525;BME280;8375;33.594;-117.718;2022-11-15T09:54:01;100700.09;;;7.33;98.61
16525;BME280;8375;33.594;-117.718;2022-11-15T09:56:32;100703.59;;;7.32;98.67
16525;BME280;8375;33.594;-117.718;2022-11-15T09:59:17;100699.16;;;7.34;99.50
16525;BME280;8375;33.594;-117.718;2022-11-15T10:01:56;100701.06;;;7.30;99.14
16525;BME280;8375;33.594;-117.718;2022-11-15T10:04:27;100698.94;;;7.23;99.46
16525;BME280;8375;33.594;-117.718;2022-11-15T10:07:02;100703.50;;;7.17;99.09
16525;BME280;8375;33.594;-117.718;2022-11-15T10:09:37;100702.66;;;7.17;98.53
16525;BME280;8375;33.594;-117.718;2022-11-15T10:12:08;100706.00;;;7.03;97.45
16525;BME280;8375;33.594;-117.718;2022-11-15T10:14:37;100706.94;;;6.68;97.08
16525;BME280;8375;33.594;-117.718;2022-11-15T10:17:29;100699.91;;;6.72;98.21
16525;BME280;8375;33.594;-117.718;2022-11-15T10:20:10;100698.31;;;6.69;98.77
16525;BME280;8375;33.594;-117.718;2022-11-15T10:22:47;100701.03;;;6.66;98.38
16525;BME280;8375;33.594;-117.718;2022-11-15T10:25:20;100695.13;;;6.64;98.58
16525;BME280;8375;33.594;-117.718;2022-11-15T10:27:54;100691.47;;;6.68;98.04
16525;BME280;8375;33.594;-117.718;2022-11-15T10:30:24;100695.72;;;6.69;99.05
16525;BME280;8375;33.594;-117.718;2022-11-15T10:32:58;100693.81;;;6.73;98.43
16525;BME280;8375;33.594;-117.718;2022-11-15T10:35:36;100690.66;;;6.68;98.68
16525;BME280;8375;33.594;-117.718;2022-11-15T10:38:09;100702.81;;;6.82;99.20
16525;BME280;8375;33.594;-117.718;2022-11-15T10:40:39;100702.38;;;6.57;96.12
16525;BME280;8375;33.594;-117.718;2022-11-15T10:43:15;100699.09;;;6.54;96.80
16525;BME280;8375;33.594;-117.718;2022-11-15T10:45:44;100698.28;;;6.53;97.41
16525;BME280;8375;33.594;-117.718;2022-11-15T10:48:22;100703.59;;;6.50;97.42
16525;BME280;8375;33.594;-117.718;2022-11-15T10:50:52;100700.28;;;6.48;98.26
16525;BME280;8375;33.594;-117.718;2022-11-15T10:53:26;100688.34;;;6.45;98.47
16525;BME280;8375;33.594;-117.718;2022-11-15T10:55:59;100695.28;;;6.45;98.33
16525;BME280;8375;33.594;-117.718;2022-11-15T10:58:35;100689.84;;;6.50;97.74
16525;BME280;8375;33.594;-117.718;2022-11-15T11:01:15;100693.91;;;6.38;98.06
16525;BME280;8375;33.594;-117.718;2022-11-15T11:03:45;100697.00;;;6.44;97.62
16525;BME280;8375;33.594;-117.718;2022-11-15T11:06:26;100693.66;;;6.42;97.84
16525;BME280;8375;33.594;-117.718;2022-11-15T11:08:57;100690.28;;;6.42;97.42
16525;BME280;8375;33.594;-117.718;2022-11-15T11:11:44;100690.00;;;6.46;96.88
16525;BME280;8375;33.594;-117.718;2022-11-15T11:14:20;100690.66;;;6.34;97.55
16525;BME280;8375;33.594;-117.718;2022-11-15T11:16:52;100700.75;;;6.39;98.18
16525;BME280;8375;33.594;-117.718;2022-11-15T11:22:22;100688.34;;;6.45;98.47
16525;BME280;8375;33.594;-117.718;2022-11-15T11:25:02;100692.69;;;6.45;98.07
16525;BME280;8375;33.594;-117.718;2022-11-15T11:27:40;100685.72;;;6.47;97.91
16525;BME280;8375;33.594;-117.718;2022-11-15T11:30:14;100687.22;;;6.51;97.79
16525;BME280;8375;33.594;-117.718;2022-11-15T11:33:05;100690.00;;;6.46;97.01
16525;BME280;8375;33.594;-117.718;2022-11-15T11:35:45;100692.41;;;6.34;97.46
16525;BME280;8375;33.594;-117.718;2022-11-15T11:38:24;100693.97;;;6.36;99.35
16525;BME280;8375;33.594;-117.718;2022-11-15T11:41:14;100696.34;;;6.41;99.05
16525;BME280;8375;33.594;-117.718;2022-11-15T11:43:52;100692.44;;;6.50;98.11
16525;BME280;8375;33.594;-117.718;2022-11-15T11:46:47;100699.28;;;6.33;96.94
16525;BME280;8375;33.594;-117.718;2022-11-15T11:49:20;100696.38;;;6.23;96.32
16525;BME280;8375;33.594;-117.718;2022-11-15T11:51:54;100692.19;;;6.21;96.38
16525;BME280;8375;33.594;-117.718;2022-11-15T11:54:31;100692.44;;;6.16;97.21
16525;BME280;8375;33.594;-117.718;2022-11-15T11:57:07;100703.34;;;6.04;98.31
16525;BME280;8375;33.594;-117.718;2022-11-15T11:59:43;100697.13;;;6.08;97.87
16525;BME280;8375;33.594;-117.718;2022-11-15T12:02:21;100694.56;;;6.08;97.30
16525;BME280;8375;33.594;-117.718;2022-11-15T12:05:01;100695.22;;;6.11;98.10
16525;BME280;8375;33.594;-117.718;2022-11-15T12:07:33;100686.75;;;6.09;98.71
16525;BME280;8375;33.594;-117.718;2022-11-15T12:10:05;100689.25;;;6.11;98.93
16525;BME280;8375;33.594;-117.718;2022-11-15T12:12:49;100699.72;;;6.08;98.26
16525;BME280;8375;33.594;-117.718;2022-11-15T12:15:21;100688.66;;;6.06;98.00
16525;BME280;8375;33.594;-117.718;2022-11-15T12:17:50;100704.53;;;6.31;99.23
16525;BME280;8375;33.594;-117.718;2022-11-15T12:20:21;100700.69;;;6.05;96.78
16525;BME280;8375;33.594;-117.718;2022-11-15T12:22:58;100700.34;;;5.94;97.07
16525;BME280;8375;33.594;-117.718;2022-11-15T12:25:31;100695.97;;;5.96;99.01
16525;BME280;8375;33.594;-117.718;2022-11-15T12:28:13;100684.59;;;6.00;99.29
16525;BME280;8375;33.594;-117.718;2022-11-15T12:30:48;100692.13;;;6.05;99.47
16525;BME280;8375;33.594;-117.718;2022-11-15T12:33:34;100704.31;;;6.01;99.10
16525;BME280;8375;33.594;-117.718;2022-11-15T12:36:08;100701.88;;;5.98;99.83
16525;BME280;8375;33.594;-117.718;2022-11-15T12:38:57;100700.06;;;6.18;100.00
16525;BME280;8375;33.594;-117.718;2022-11-15T12:41:27;100700.22;;;6.14;100.00
16525;BME280;8375;33.594;-117.718;2022-11-15T12:43:58;100704.88;;;6.08;99.71
16525;BME280;8375;33.594;-117.718;2022-11-15T12:47:02;100705.03;;;6.05;100.00
16525;BME280;8375;33.594;-117.718;2022-11-15T12:49:45;100705.38;;;6.14;100.00
16525;BME280;8375;33.594;-117.718;2022-11-15T12:52:14;100701.13;;;6.13;100.00
16525;BME280;8375;33.594;-117.718;2022-11-15T12:55:00;100698.16;;;5.68;97.48
16525;BME280;8375;33.594;-117.718;2022-11-15T12:57:37;100697.56;;;5.63;99.55
16525;BME280;8375;33.594;-117.718;2022-11-15T13:03:26;100698.31;;;5.83;100.00
16525;BME280;8375;33.594;-117.718;2022-11-15T13:06:03;100704.84;;;5.90;100.00
16525;BME280;8375;33.594;-117.718;2022-11-15T13:08:53;100703.03;;;5.92;100.00
16525;BME280;8375;33.594;-117.718;2022-11-15T13:11:50;100699.53;;;5.76;99.62
16525;BME280;8375;33.594;-117.718;2022-11-15T13:14:41;100702.09;;;5.76;100.00